createdAt,value
2022-12-15T00:02:52.329Z,-7.89
2022-12-15T00:08:12.535Z,-7.78
2022-12-15T00:13:33.531Z,-8.03
2022-12-15T00:18:54.913Z,-8.36
2022-12-15T00:24:15.243Z,-8.25
2022-12-15T00:29:35.441Z,-8.35
2022-12-15T00:34:55.804Z,-8.25
2022-12-15T00:40:04.326Z,-8.19
2022-12-15T00:45:06.517Z,-8.14
2022-12-15T00:50:26.951Z,-8.32
2022-12-15T00:55:47.270Z,-8.20
2022-12-15T01:01:07.531Z,-8.03
2022-12-15T01:06:33.740Z,-8.24
2022-12-15T01:11:54.070Z,-8.20
2022-12-15T01:17:14.216Z,-8.57
2022-12-15T01:22:16.167Z,-8.98
2022-12-15T01:27:17.966Z,-8.90
2022-12-15T01:32:19.646Z,-8.98
2022-12-15T01:37:21.324Z,-8.99
2022-12-15T01:42:23.113Z,-9.02
2022-12-15T01:47:27.306Z,-9.26
2022-12-15T01:52:30.756Z,-9.12
2022-12-15T01:57:36.436Z,-9.02
2022-12-15T02:02:40.513Z,-8.90
2022-12-15T02:07:43.344Z,-8.74
2022-12-15T02:13:19.693Z,-8.81
2022-12-15T02:18:46.176Z,-8.81
2022-12-15T02:24:03.741Z,-8.74
2022-12-15T02:29:42.241Z,-8.70
2022-12-15T02:34:50.360Z,-8.80
2022-12-15T02:39:52.116Z,-8.79
2022-12-15T02:44:58.786Z,-8.79
2022-12-15T02:50:42.801Z,-8.88
2022-12-15T02:56:13.095Z,-8.99
2022-12-15T03:01:43.381Z,-9.02
2022-12-15T03:06:45.113Z,-8.72
2022-12-15T03:11:46.888Z,-8.53
2022-12-15T03:16:48.616Z,-8.40
2022-12-15T03:21:50.333Z,-8.36
2022-12-15T03:26:51.990Z,-8.37
2022-12-15T03:31:53.767Z,-8.42
2022-12-15T03:36:55.473Z,-8.27
2022-12-15T03:41:57.145Z,-7.90
2022-12-15T03:47:03.287Z,-7.75
2022-12-15T03:52:05.547Z,-7.54
2022-12-15T03:57:07.206Z,-7.59
2022-12-15T04:02:12.263Z,-7.57
2022-12-15T04:07:14.173Z,-7.35
2022-12-15T04:12:15.837Z,-7.51
2022-12-15T04:17:17.593Z,-7.51
2022-12-15T04:22:19.273Z,-7.48
2022-12-15T04:27:39.402Z,-7.69
2022-12-15T04:32:59.698Z,-7.72
2022-12-15T04:38:19.962Z,-7.94
2022-12-15T04:43:40.385Z,-8.08
2022-12-15T04:49:00.718Z,-8.22
2022-12-15T04:54:21.167Z,-8.25
2022-12-15T04:59:41.434Z,-8.39
2022-12-15T05:05:01.734Z,-8.06
2022-12-15T05:10:22.909Z,-8.14
2022-12-15T05:15:43.203Z,-8.30
2022-12-15T05:21:03.548Z,-8.18
2022-12-15T05:26:23.790Z,-7.99
2022-12-15T05:31:43.895Z,-8.30
2022-12-15T05:36:45.685Z,-8.22
2022-12-15T05:41:47.663Z,-8.20
2022-12-15T05:46:49.400Z,-8.37
2022-12-15T05:51:51.120Z,-8.34
2022-12-15T05:56:52.891Z,-8.47
2022-12-15T06:01:54.601Z,-8.24
2022-12-15T06:06:56.305Z,-8.46
2022-12-15T06:11:57.984Z,-8.53
2022-12-15T06:17:00.194Z,-8.63
2022-12-15T06:22:01.934Z,-8.72
2022-12-15T06:27:03.680Z,-8.61
2022-12-15T06:32:05.454Z,-8.54
2022-12-15T06:37:07.107Z,-8.51
2022-12-15T06:42:08.764Z,-8.62
2022-12-15T06:47:10.529Z,-8.53
2022-12-15T06:52:12.458Z,-8.68
2022-12-15T06:57:14.131Z,-8.59
2022-12-15T07:02:20.068Z,-8.62
2022-12-15T07:07:24.132Z,-8.64
2022-12-15T07:12:25.900Z,-8.59
2022-12-15T07:17:27.559Z,-8.52
2022-12-15T07:22:29.223Z,-8.33
2022-12-15T07:27:30.900Z,-8.42
2022-12-15T07:32:32.686Z,-8.61
2022-12-15T07:37:35.033Z,-8.49
2022-12-15T07:42:37.352Z,-8.34
2022-12-15T07:47:39.029Z,-8.18
2022-12-15T07:52:40.749Z,-7.95
2022-12-15T07:57:42.451Z,-7.92
2022-12-15T08:02:44.340Z,-7.83
2022-12-15T08:07:46.803Z,-7.89
2022-12-15T08:12:48.511Z,-7.86
2022-12-15T08:17:50.161Z,-8.14
2022-12-15T08:22:52.111Z,-8.15
2022-12-15T08:27:53.880Z,-8.46
2022-12-15T08:32:55.643Z,-8.27
2022-12-15T08:38:02.275Z,-7.99
2022-12-15T08:43:06.841Z,-7.70
2022-12-15T08:48:08.512Z,-7.33
2022-12-15T08:53:30.828Z,-7.35
2022-12-15T08:58:33.628Z,-7.42
2022-12-15T09:03:36.498Z,-7.67
2022-12-15T09:08:38.564Z,-7.51
2022-12-15T09:13:40.298Z,-7.50
2022-12-15T09:18:43.903Z,-7.33
2022-12-15T09:23:52.819Z,-7.12
2022-12-15T09:28:55.337Z,-7.13
2022-12-15T09:33:58.899Z,-6.98
2022-12-15T09:39:02.310Z,-6.89
2022-12-15T09:44:10.391Z,-6.45
2022-12-15T09:49:34.494Z,-6.09
2022-12-15T09:54:36.249Z,-5.70
2022-12-15T09:59:57.746Z,-5.42
2022-12-15T10:05:12.214Z,-4.53
2022-12-15T10:10:32.476Z,-3.55
2022-12-15T10:16:14.736Z,-3.23
2022-12-15T10:21:17.024Z,2.37
2022-12-15T10:26:23.384Z,7.35
2022-12-15T10:31:41.761Z,9.28
2022-12-15T10:36:50.579Z,10.12
2022-12-15T10:42:27.180Z,10.80
2022-12-15T10:47:31.716Z,13.38
2022-12-15T10:52:37.692Z,15.06
2022-12-15T10:57:58.366Z,14.89
2022-12-15T11:03:00.249Z,16.22
2022-12-15T11:08:17.233Z,15.90
2022-12-15T11:13:23.594Z,15.89
2022-12-15T11:19:02.416Z,15.60
2022-12-15T11:24:30.561Z,15.63
2022-12-15T11:29:56.828Z,15.80
2022-12-15T11:34:59.039Z,15.73
2022-12-15T11:40:03.423Z,16.98
2022-12-15T11:45:20.944Z,16.54
2022-12-15T11:50:44.520Z,15.84
2022-12-15T11:56:04.768Z,14.29
2022-12-15T12:01:25.320Z,13.33
2022-12-15T12:06:40.127Z,10.02
2022-12-15T12:11:56.682Z,5.78
2022-12-15T12:17:30.852Z,3.04
2022-12-15T12:22:40.426Z,4.27
2022-12-15T12:27:53.932Z,7.27
2022-12-15T12:33:25.161Z,7.01
2022-12-15T12:38:34.033Z,9.72
2022-12-15T12:43:50.523Z,9.01
2022-12-15T12:49:26.218Z,9.30
2022-12-15T12:54:34.485Z,8.77
2022-12-15T12:59:39.420Z,10.21
2022-12-15T13:04:44.481Z,9.45
2022-12-15T13:10:12.610Z,9.45
2022-12-15T13:15:23.149Z,9.09
2022-12-15T13:20:37.215Z,9.75
2022-12-15T13:25:41.767Z,7.33
2022-12-15T13:31:21.002Z,7.63
2022-12-15T13:36:37.963Z,5.94
2022-12-15T13:42:23.493Z,5.30
2022-12-15T13:47:16.374Z,4.62
2022-12-15T13:52:38.106Z,3.74
2022-12-15T13:57:55.554Z,2.13
2022-12-15T14:03:06.756Z,0.72
2022-12-15T14:08:15.815Z,1.01
2022-12-15T14:13:26.270Z,0.96
2022-12-15T14:18:33.690Z,-0.27
2022-12-15T14:29:06.299Z,-2.22
2022-12-15T14:34:24.895Z,-2.49
2022-12-15T14:39:33.795Z,-3.25
2022-12-15T14:44:39.665Z,-3.48
2022-12-15T14:49:45.212Z,-3.82
2022-12-15T14:54:53.672Z,-4.05
2022-12-15T14:59:59.581Z,-4.32
2022-12-15T15:03:14.309Z,-1.31
2022-12-15T15:05:04.675Z,-4.45
2022-12-15T15:10:22.962Z,-4.69
2022-12-15T15:15:26.694Z,-5.09
2022-12-15T15:20:31.812Z,-5.16
2022-12-15T15:25:39.339Z,-5.16
2022-12-15T15:30:48.351Z,-5.51
2022-12-15T15:35:53.361Z,-5.72
2022-12-15T15:40:58.105Z,-5.88
2022-12-15T15:46:10.526Z,-6.03
2022-12-15T15:51:12.564Z,-5.91
2022-12-15T15:56:16.527Z,-6.14
2022-12-15T16:01:18.262Z,-6.50
2022-12-15T16:06:21.910Z,-6.62
2022-12-15T16:11:27.843Z,-6.56
2022-12-15T16:16:32.622Z,-6.78
2022-12-15T16:21:35.623Z,-6.69
2022-12-15T16:26:38.959Z,-7.17
2022-12-15T16:31:45.442Z,-7.31
2022-12-15T16:36:47.872Z,-7.07
2022-12-15T16:41:51.711Z,-7.12
2022-12-15T16:46:53.413Z,-7.14
2022-12-15T16:51:55.435Z,-7.36
2022-12-15T16:56:59.924Z,-7.56
2022-12-15T17:02:02.381Z,-7.54
2022-12-15T17:07:04.181Z,-7.68
2022-12-15T17:12:06.056Z,-7.65
2022-12-15T17:17:14.983Z,-7.65
2022-12-15T17:22:16.699Z,-7.40
2022-12-15T17:27:28.150Z,-7.89
2022-12-15T17:32:29.834Z,-8.02
2022-12-15T17:37:35.230Z,-8.04
2022-12-15T17:42:37.315Z,-8.02
2022-12-15T17:47:38.976Z,-8.07
2022-12-15T17:52:42.856Z,-7.59
2022-12-15T17:57:45.123Z,-7.67
2022-12-15T18:02:47.470Z,-7.71
2022-12-15T18:07:53.774Z,-7.71
2022-12-15T18:12:56.336Z,-7.47
2022-12-15T18:18:00.328Z,-7.16
2022-12-15T18:23:02.040Z,-7.20
2022-12-15T18:28:17.389Z,-6.86
2022-12-15T18:33:20.427Z,-6.75
2022-12-15T18:38:24.791Z,-6.73
2022-12-15T18:43:30.207Z,-6.52
2022-12-15T18:48:34.965Z,-6.70
2022-12-15T18:53:37.080Z,-6.76
2022-12-15T18:58:40.030Z,-6.82
2022-12-15T19:03:41.706Z,-6.63
2022-12-15T19:08:43.398Z,-6.60
2022-12-15T19:13:45.945Z,-6.45
2022-12-15T19:19:06.570Z,-6.53
2022-12-15T19:24:11.877Z,-6.20
2022-12-15T19:29:21.997Z,-6.21
2022-12-15T19:34:23.651Z,-6.17
2022-12-15T19:39:25.373Z,-6.27
2022-12-15T19:44:27.547Z,-6.08
2022-12-15T19:49:29.195Z,-5.85
2022-12-15T19:54:31.047Z,-6.04
2022-12-15T19:59:32.707Z,-5.91
2022-12-15T20:04:34.382Z,-5.99
2022-12-15T20:09:36.032Z,-5.98
2022-12-15T20:14:37.849Z,-5.81
2022-12-15T20:19:39.504Z,-5.94
2022-12-15T20:24:42.328Z,-6.14
2022-12-15T20:29:44.907Z,-6.09
2022-12-15T20:34:47.420Z,-6.28
2022-12-15T20:39:55.556Z,-6.11
2022-12-15T20:44:58.988Z,-5.89
2022-12-15T20:50:00.712Z,-5.56
2022-12-15T20:55:03.131Z,-5.92
2022-12-15T21:00:05.588Z,-5.85
2022-12-15T21:05:08.430Z,-5.72
2022-12-15T21:10:11.395Z,-5.81
2022-12-15T21:15:22.224Z,-5.57
2022-12-15T21:20:23.916Z,-5.48
2022-12-15T21:25:26.849Z,-5.74
2022-12-15T21:30:28.763Z,-5.75
2022-12-15T21:35:32.059Z,-5.76
2022-12-15T21:40:33.936Z,-5.57
2022-12-15T21:45:35.593Z,-5.34
2022-12-15T21:50:38.464Z,-5.52
2022-12-15T21:55:41.158Z,-5.45
2022-12-15T22:00:45.698Z,-5.33
2022-12-15T22:05:47.605Z,-5.68
2022-12-15T22:10:51.948Z,-5.52
2022-12-15T22:15:54.699Z,-5.42
2022-12-15T22:20:56.564Z,-5.41
2022-12-15T22:25:58.324Z,-5.31
2022-12-15T22:31:02.441Z,-5.19
2022-12-15T22:36:04.368Z,-5.08
2022-12-15T22:41:09.971Z,-5.14
2022-12-15T22:46:14.180Z,-5.16
2022-12-15T22:51:17.466Z,-5.16
2022-12-15T22:56:24.260Z,-4.96
2022-12-15T23:01:26.971Z,-5.00
2022-12-15T23:06:28.717Z,-4.92
2022-12-15T23:11:39.508Z,-5.08
2022-12-15T23:16:42.061Z,-5.04
2022-12-15T23:21:43.707Z,-5.13
2022-12-15T23:26:45.391Z,-5.03
2022-12-15T23:31:47.459Z,-5.09
2022-12-15T23:36:49.193Z,-4.98
2022-12-15T23:41:50.848Z,-4.75
2022-12-15T23:46:52.571Z,-5.00
2022-12-15T23:51:54.364Z,-4.86
2022-12-15T23:56:56.791Z,-4.90
